Time;durP1;ratioP1;P1;durP2;ratioP2;P2;SDS_P1;SDS_P2;PMS_P1;PMS_P2;Temp;Humidity;BMP_temperature;BMP_pressure;BME280_temperature;BME280_humidity;BME280_pressure;Samples;Min_cycle;Max_cycle;Signal;HPM_P1;HPM_P2
2022/06/17 00:02:04;;;;;;;;;20.50;14.50;;;;;-149.35;100.00;64108.03;4998720;28;45512;-54
2022/06/17 00:04:29;;;;;;;;;11.25;11.25;;;;;-149.35;100.00;64108.03;4980229;28;47554;-53
2022/06/17 00:06:57;;;;;;;;;15.50;14.50;;;;;-149.35;100.00;64108.03;4998097;28;45374;-54
2022/06/17 00:09:23;;;;;;;;;12.40;12.00;;;;;-149.35;100.00;64108.03;4980709;28;45371;-54
2022/06/17 00:11:48;;;;;;;;;11.40;9.40;;;;;-149.35;100.00;64108.03;4981112;28;45610;-52
2022/06/17 00:14:24;;;;;;;;;10.75;10.75;;;;;-149.35;100.00;64108.03;4996796;28;46784;-51
2022/06/17 00:16:49;;;;;;;;;10.00;10.00;;;;;-149.35;100.00;64108.03;4980977;28;45378;-51
2022/06/17 00:19:15;;;;;;;;;13.75;11.50;;;;;-149.35;100.00;64108.03;4998119;28;45232;-52
2022/06/17 00:21:42;;;;;;;;;10.25;10.00;;;;;-149.35;100.00;64108.03;4997890;28;45291;-51
2022/06/17 00:24:25;;;;;;;;;11.60;11.60;;;;;-149.35;100.00;64108.03;4980363;28;47317;-51
2022/06/17 00:26:51;;;;;;;;;9.40;8.80;;;;;-149.35;100.00;64108.03;4980779;28;45404;-52
2022/06/17 00:29:17;;;;;;;;;9.20;9.20;;;;;-149.35;100.00;64108.03;4980322;28;45521;-52
2022/06/17 00:31:43;;;;;;;;;10.60;10.00;;;;;-149.35;100.00;64108.03;4997705;28;45232;-53
2022/06/17 00:34:09;;;;;;;;;12.00;10.00;;;;;-149.35;100.00;64108.03;4996357;28;45625;-51
2022/06/17 00:36:34;;;;;;;;;11.25;9.00;;;;;-149.35;100.00;64108.03;4996330;28;45501;-54
2022/06/17 00:39:00;;;;;;;;;10.00;9.75;;;;;-149.35;100.00;64108.03;4996829;28;45264;-53
2022/06/17 00:41:31;;;;;;;;;8.75;8.75;;;;;-149.35;100.00;64108.03;4997715;28;45532;-56
2022/06/17 00:43:59;;;;;;;;;11.20;11.20;;;;;-149.35;100.00;64108.03;4996533;28;47039;-55
2022/06/17 00:47:06;;;;;;;;;7.80;7.20;;;;;-149.35;100.00;64108.03;4996194;28;45385;-54
2022/06/17 00:49:40;;;;;;;;;7.40;7.20;;;;;-149.35;100.00;64108.03;4955800;28;45453;-55
2022/06/17 00:52:08;;;;;;;;;9.80;9.80;;;;;-149.35;100.00;64108.03;4909253;28;45460;-49
2022/06/17 00:54:37;;;;;;;;;9.20;9.20;;;;;-149.35;100.00;64108.03;4977622;28;46614;-49
2022/06/17 00:57:24;;;;;;;;;8.80;8.80;;;;;-149.35;100.00;64108.03;4997385;28;45508;-54
2022/06/17 01:00:07;;;;;;;;;9.20;9.20;;;;;-149.35;100.00;64108.03;4980940;28;45429;-53
2022/06/17 01:02:55;;;;;;;;;9.20;9.00;;;;;-149.35;100.00;64108.03;4997959;28;45300;-56
2022/06/17 01:05:28;;;;;;;;;9.80;9.20;;;;;-149.35;100.00;64108.03;4997296;28;45334;-52
2022/06/17 01:07:58;;;;;;;;;12.00;10.60;;;;;-149.35;100.00;64108.03;4980493;28;45428;-54
2022/06/17 01:10:24;;;;;;;;;11.00;11.00;;;;;-149.35;100.00;64108.03;4996110;28;45413;-54
2022/06/17 01:13:13;;;;;;;;;6.50;6.50;;;;;-149.35;100.00;64108.03;4996337;28;45382;-53
2022/06/17 01:15:40;;;;;;;;;9.40;8.20;;;;;-149.35;100.00;64108.03;4996324;28;46766;-53
2022/06/17 01:18:05;;;;;;;;;11.40;10.40;;;;;-149.35;100.00;64108.03;4995854;28;45433;-52
2022/06/17 01:20:31;;;;;;;;;10.00;10.00;;;;;-149.35;100.00;64108.03;4996109;28;45340;-50
2022/06/17 01:22:57;;;;;;;;;8.50;8.50;;;;;-149.35;100.00;64108.03;4996889;28;45338;-50
2022/06/17 01:25:35;;;;;;;;;10.40;10.40;;;;;-149.35;100.00;64108.03;4995524;28;46724;-52
2022/06/17 01:28:03;;;;;;;;;8.00;8.00;;;;;-149.35;100.00;64108.03;4996859;28;45306;-51
2022/06/17 01:30:29;;;;;;;;;10.00;9.00;;;;;-149.35;100.00;64108.03;4995852;28;45465;-51
2022/06/17 01:33:00;;;;;;;;;10.80;10.00;;;;;-149.35;100.00;64108.03;4995782;28;45950;-52
2022/06/17 01:35:29;;;;;;;;;9.40;9.40;;;;;-149.35;100.00;64108.03;4994996;28;46410;-51
2022/06/17 01:37:55;;;;;;;;;10.60;10.60;;;;;-149.35;100.00;64108.03;4979062;28;45500;-51
2022/06/17 01:40:20;;;;;;;;;9.80;9.60;;;;;-149.35;100.00;64108.03;4995343;28;45394;-51
2022/06/17 01:42:46;;;;;;;;;9.50;9.50;;;;;-149.35;100.00;64108.03;4996739;28;45576;-50
2022/06/17 01:45:12;;;;;;;;;9.25;9.25;;;;;-149.35;100.00;64108.03;4993870;28;46084;-55
2022/06/17 01:47:37;;;;;;;;;6.75;4.75;;;;;-149.35;100.00;64108.03;4995304;28;45311;-56
2022/06/17 01:50:12;;;;;;;;;10.00;9.00;;;;;-149.35;100.00;64108.03;4978840;28;45290;-54
2022/06/17 01:52:49;;;;;;;;;8.20;7.20;;;;;-149.35;100.00;64108.03;4979402;28;45399;-55
2022/06/17 01:55:21;;;;;;;;;10.00;10.00;;;;;-149.35;100.00;64108.03;4996068;28;45321;-50
2022/06/17 01:58:07;;;;;;;;;8.40;8.40;;;;;-149.35;100.00;64108.03;4994860;28;45485;-55
2022/06/17 02:00:32;;;;;;;;;9.40;9.40;;;;;-149.35;100.00;64108.03;4982801;28;45447;-51
2022/06/17 02:03:02;;;;;;;;;8.25;8.25;;;;;-149.35;100.00;64108.03;4965166;28;45383;-50
2022/06/17 02:05:27;;;;;;;;;10.20;9.20;;;;;-149.35;100.00;64108.03;4978801;28;45607;-53
2022/06/17 02:07:55;;;;;;;;;10.25;10.25;;;;;-149.35;100.00;64108.03;4994903;28;45482;-50
2022/06/17 02:10:21;;;;;;;;;11.00;11.00;;;;;-149.35;100.00;64108.03;4994860;28;45453;-51
2022/06/17 02:12:47;;;;;;;;;11.40;11.40;;;;;-149.35;100.00;64108.03;4996251;28;45644;-52
2022/06/17 02:15:12;;;;;;;;;12.25;10.75;;;;;-149.35;100.00;64108.03;4995770;28;45568;-52
2022/06/17 02:17:41;;;;;;;;;11.00;10.25;;;;;-149.35;100.00;64108.03;4978546;28;45197;-50
2022/06/17 02:20:08;;;;;;;;;10.20;10.20;;;;;-149.35;100.00;64108.03;4995081;28;45394;-53
2022/06/17 02:22:34;;;;;;;;;9.60;9.60;;;;;-149.35;100.00;64108.03;4978267;28;45476;-54
2022/06/17 02:25:03;;;;;;;;;8.60;8.60;;;;;-149.35;100.00;64108.03;4978712;28;46989;-50
2022/06/17 02:27:28;;;;;;;;;10.00;10.00;;;;;-149.35;100.00;64108.03;4978686;28;45189;-50
2022/06/17 02:29:54;;;;;;;;;9.00;9.00;;;;;-149.35;100.00;64108.03;4978789;28;45271;-53
2022/06/17 02:32:19;;;;;;;;;10.00;10.00;;;;;-149.35;100.00;64108.03;4995041;28;45284;-54
2022/06/17 02:35:02;;;;;;;;;11.50;9.75;;;;;-149.35;100.00;64108.03;4969816;28;47785;-49
2022/06/17 02:37:27;;;;;;;;;8.60;8.60;;;;;-149.35;100.00;64108.03;4994617;28;45330;-52
2022/06/17 02:39:55;;;;;;;;;9.25;9.00;;;;;-149.35;100.00;64108.03;4962436;28;45265;-50
2022/06/17 02:42:22;;;;;;;;;9.80;8.20;;;;;-149.35;100.00;64108.03;4978801;28;45279;-54
2022/06/17 02:44:50;;;;;;;;;10.40;9.40;;;;;-149.35;100.00;64108.03;4995977;28;45682;-50
2022/06/17 02:47:15;;;;;;;;;9.80;9.80;;;;;-149.35;100.00;64108.03;4994605;28;45366;-52
2022/06/17 02:49:41;;;;;;;;;10.50;10.50;;;;;-149.35;100.00;64108.03;4978577;28;45450;-50
2022/06/17 02:52:12;;;;;;;;;13.00;11.50;;;;;-149.35;100.00;64108.03;4996251;28;45559;-53
2022/06/17 02:54:42;;;;;;;;;10.40;10.40;;;;;-149.35;100.00;64108.03;4978866;28;45415;-57
2022/06/17 02:57:09;;;;;;;;;9.60;9.60;;;;;-149.35;100.00;64108.03;4998288;28;45472;-51
2022/06/17 02:59:50;;;;;;;;;8.60;8.60;;;;;-149.35;100.00;64108.03;4981807;28;45324;-51
2022/06/17 03:02:28;;;;;;;;;10.00;10.00;;;;;-149.35;100.00;64108.03;4982357;28;45460;-52
2022/06/17 03:04:53;;;;;;;;;11.20;11.20;;;;;-149.35;100.00;64108.03;4997727;28;45636;-49
2022/06/17 03:07:21;;;;;;;;;9.25;9.25;;;;;-149.35;100.00;64108.03;4999389;28;45828;-51
2022/06/17 03:09:46;;;;;;;;;10.20;10.20;;;;;-149.35;100.00;64108.03;4999092;28;45255;-51
2022/06/17 03:12:17;;;;;;;;;10.50;9.50;;;;;-149.35;100.00;64108.03;4999211;28;45393;-52
2022/06/17 03:14:49;;;;;;;;;7.80;7.80;;;;;-149.35;100.00;64108.03;4997748;28;46709;-54
2022/06/17 03:17:17;;;;;;;;;9.00;9.00;;;;;-149.35;100.00;64108.03;4997804;28;45419;-51
2022/06/17 03:19:44;;;;;;;;;10.00;10.00;;;;;-149.35;100.00;64108.03;4981583;28;45243;-53
2022/06/17 03:22:11;;;;;;;;;10.40;10.00;;;;;-149.35;100.00;64108.03;4981353;28;45419;-54
2022/06/17 03:25:18;;;;;;;;;10.40;9.40;;;;;-149.35;100.00;64108.03;4981016;28;46454;-51
2022/06/17 03:28:17;;;;;;;;;9.80;8.80;;;;;-149.35;100.00;64108.03;4998317;28;45386;-51
2022/06/17 03:30:46;;;;;;;;;10.00;9.40;;;;;-149.35;100.00;64108.03;4976151;28;45408;-50
2022/06/17 03:33:13;;;;;;;;;9.80;7.80;;;;;-149.35;100.00;64108.03;4997365;28;45701;-50
2022/06/17 03:35:39;;;;;;;;;9.00;9.00;;;;;-149.35;100.00;64108.03;4997025;28;46787;-48
2022/06/17 03:38:12;;;;;;;;;10.25;10.25;;;;;-149.35;100.00;64108.03;4980554;28;45386;-50
2022/06/17 03:40:47;;;;;;;;;12.40;11.40;;;;;-149.35;100.00;64108.03;4997672;28;45442;-54
2022/06/17 03:43:26;;;;;;;;;10.00;10.00;;;;;-149.35;100.00;64108.03;4981133;28;45556;-54
2022/06/17 03:45:52;;;;;;;;;4.40;4.20;;;;;-149.35;100.00;64108.03;4981020;28;46681;-55
2022/06/17 03:48:28;;;;;;;;;9.50;9.00;;;;;-149.35;100.00;64108.03;4998452;28;45378;-51
2022/06/17 03:50:54;;;;;;;;;9.00;8.80;;;;;-149.35;100.00;64108.03;4998534;28;45271;-52
2022/06/17 03:53:29;;;;;;;;;12.00;12.00;;;;;-149.35;100.00;64108.03;4980869;28;45519;-56
2022/06/17 03:55:57;;;;;;;;;11.40;10.00;;;;;-149.35;100.00;64108.03;4996746;28;45672;-49
2022/06/17 03:58:23;;;;;;;;;10.40;10.20;;;;;-149.35;100.00;64108.03;4996891;28;45403;-50
2022/06/17 04:01:00;;;;;;;;;10.00;10.00;;;;;-149.35;100.00;64108.03;4980693;28;45482;-54
2022/06/17 04:03:29;;;;;;;;;12.60;11.20;;;;;-149.35;100.00;64108.03;4998230;28;45557;-49
2022/06/17 04:06:19;;;;;;;;;9.80;9.20;;;;;-149.35;100.00;64108.03;4980502;28;45509;-53
2022/06/17 04:09:01;;;;;;;;;8.40;8.40;;;;;-149.35;100.00;64108.03;4994727;28;45383;-52
2022/06/17 04:11:33;;;;;;;;;10.00;10.00;;;;;-149.35;100.00;64108.03;4998082;28;45381;-52
2022/06/17 04:14:01;;;;;;;;;13.40;11.60;;;;;-149.35;100.00;64108.03;4996726;28;45275;-50
2022/06/17 04:16:35;;;;;;;;;13.80;11.80;;;;;-149.35;100.00;64108.03;4996728;28;45881;-51
2022/06/17 04:19:14;;;;;;;;;13.00;12.00;;;;;-149.35;100.00;64108.03;4996180;28;45338;-50
2022/06/17 04:21:39;;;;;;;;;13.80;10.80;;;;;-149.35;100.00;64108.03;4996885;28;45421;-52
2022/06/17 04:24:09;;;;;;;;;12.50;11.50;;;;;-149.35;100.00;64108.03;4997713;28;45380;-53
2022/06/17 04:26:34;;;;;;;;;12.60;11.40;;;;;-149.35;100.00;64108.03;4980777;28;46612;-56
2022/06/17 04:29:09;;;;;;;;;10.75;10.75;;;;;-149.35;100.00;64108.03;4980465;28;45345;-51
2022/06/17 04:31:35;;;;;;;;;10.80;10.80;;;;;-149.35;100.00;64108.03;4981061;28;45317;-53
2022/06/17 04:34:17;;;;;;;;;10.75;10.50;;;;;-149.35;100.00;64108.03;4963302;28;45367;-55
2022/06/17 04:37:00;;;;;;;;;12.60;11.40;;;;;-149.35;100.00;64108.03;4997529;28;46112;-53
2022/06/17 04:39:33;;;;;;;;;11.80;10.40;;;;;-149.35;100.00;64108.03;4996258;28;45379;-52
2022/06/17 04:42:03;;;;;;;;;11.60;11.60;;;;;-149.35;100.00;64108.03;4997936;28;45487;-56
2022/06/17 04:44:29;;;;;;;;;10.20;8.20;;;;;-149.35;100.00;64108.03;5012216;28;45433;-51
2022/06/17 04:47:02;;;;;;;;;10.25;10.25;;;;;-149.35;100.00;64108.03;4997596;28;46418;-56
2022/06/17 04:49:29;;;;;;;;;8.40;8.00;;;;;-149.35;100.00;64108.03;5012340;28;45459;-51
2022/06/17 04:52:06;;;;;;;;;13.00;11.00;;;;;-149.35;100.00;64108.03;5013100;28;45787;-53
2022/06/17 04:54:32;;;;;;;;;9.00;9.00;;;;;-149.35;100.00;64108.03;4997416;28;45373;-49
2022/06/17 04:56:58;;;;;;;;;10.50;10.50;;;;;-149.35;100.00;64108.03;4996405;28;45588;-50
2022/06/17 04:59:44;;;;;;;;;7.60;7.60;;;;;-149.35;100.00;64108.03;5012307;28;45497;-48
2022/06/17 05:02:29;;;;;;;;;9.40;9.40;;;;;-149.35;100.00;64108.03;4997263;28;45310;-49
2022/06/17 05:04:59;;;;;;;;;7.00;7.00;;;;;-149.35;100.00;64108.03;4997733;28;45286;-54
2022/06/17 05:07:26;;;;;;;;;8.80;8.80;;;;;-149.35;100.00;64108.03;4997112;28;46252;-53
2022/06/17 05:10:04;;;;;;;;;10.80;7.60;;;;;-149.35;100.00;64108.03;5012338;28;45299;-49
2022/06/17 05:12:38;;;;;;;;;9.80;9.80;;;;;-149.35;100.00;64108.03;4997095;28;45434;-56
2022/06/17 05:15:09;;;;;;;;;6.00;6.00;;;;;-149.35;100.00;64108.03;4996056;28;45486;-52
2022/06/17 05:17:35;;;;;;;;;10.40;10.40;;;;;-149.35;100.00;64108.03;4995849;28;46603;-50
2022/06/17 05:20:01;;;;;;;;;10.00;8.25;;;;;-149.35;100.00;64108.03;4996910;28;45302;-51
2022/06/17 05:22:29;;;;;;;;;10.75;9.00;;;;;-149.35;100.00;64108.03;5011821;28;45345;-53
2022/06/17 05:24:54;;;;;;;;;9.40;8.40;;;;;-149.35;100.00;64108.03;4995736;28;45407;-50
2022/06/17 05:27:20;;;;;;;;;8.50;8.25;;;;;-149.35;100.00;64108.03;4996676;28;45765;-54
2022/06/17 05:29:45;;;;;;;;;8.00;7.00;;;;;-149.35;100.00;64108.03;4996452;28;45495;-51
2022/06/17 05:32:12;;;;;;;;;9.00;9.00;;;;;-149.35;100.00;64108.03;4996996;28;45359;-51
2022/06/17 05:34:38;;;;;;;;;8.60;8.60;;;;;-149.35;100.00;64108.03;4990613;28;45647;-51
2022/06/17 05:37:03;;;;;;;;;10.00;7.00;;;;;-149.35;100.00;64108.03;4996358;28;46671;-49
2022/06/17 05:39:29;;;;;;;;;9.50;7.50;;;;;-149.35;100.00;64108.03;4996514;28;45346;-53
2022/06/17 05:41:54;;;;;;;;;8.00;8.00;;;;;-149.35;100.00;64108.03;4996718;28;45283;-57
2022/06/17 05:44:20;;;;;;;;;10.00;7.50;;;;;-149.35;100.00;64108.03;4996561;28;45423;-53
2022/06/17 05:46:47;;;;;;;;;8.50;8.50;;;;;-149.35;100.00;64108.03;4996076;28;46484;-52
2022/06/17 05:49:13;;;;;;;;;9.20;9.20;;;;;-149.35;100.00;64108.03;4996320;28;45341;-52
2022/06/17 05:51:38;;;;;;;;;11.00;11.00;;;;;-149.35;100.00;64108.03;4995147;28;45476;-50
2022/06/17 05:54:04;;;;;;;;;8.25;7.75;;;;;-149.35;100.00;64108.03;4995388;28;45386;-58
2022/06/17 05:56:29;;;;;;;;;10.75;8.50;;;;;-149.35;100.00;64108.03;4996184;28;45957;-54
2022/06/17 05:58:54;;;;;;;;;10.25;9.25;;;;;-149.35;100.00;64108.03;4996156;28;45387;-51
2022/06/17 06:01:20;;;;;;;;;14.75;11.50;;;;;-149.35;100.00;64108.03;4996190;28;45418;-50
2022/06/17 06:03:46;;;;;;;;;11.00;10.00;;;;;-149.35;100.00;64108.03;4996285;28;45251;-52
2022/06/17 06:06:11;;;;;;;;;12.25;10.00;;;;;-149.35;100.00;64108.03;4996011;28;46682;-50
2022/06/17 06:08:37;;;;;;;;;11.25;11.25;;;;;-149.35;100.00;64108.03;4996107;28;45284;-55
2022/06/17 06:11:04;;;;;;;;;12.50;9.75;;;;;-149.35;100.00;64108.03;4995644;28;45809;-50
2022/06/17 06:13:29;;;;;;;;;9.20;9.20;;;;;-149.35;100.00;64108.03;4994493;28;45492;-52
2022/06/17 06:15:55;;;;;;;;;10.50;10.50;;;;;-149.35;100.00;64108.03;4994199;28;46762;-51
2022/06/17 06:18:28;;;;;;;;;11.00;10.00;;;;;-149.35;100.00;64108.03;4995867;28;45323;-51
2022/06/17 06:20:54;;;;;;;;;9.80;9.40;;;;;-149.35;100.00;64108.03;4994408;28;45262;-51
2022/06/17 06:23:19;;;;;;;;;10.25;9.25;;;;;-149.35;100.00;64108.03;4994582;28;45365;-52
2022/06/17 06:25:45;;;;;;;;;10.50;9.50;;;;;-149.35;100.00;64108.03;4995378;28;45393;-57
2022/06/17 06:28:12;;;;;;;;;8.75;8.75;;;;;-149.35;100.00;64108.03;4977712;28;46086;-52
2022/06/17 06:30:38;;;;;;;;;9.20;9.20;;;;;-149.35;100.00;64108.03;4993669;28;45470;-52
2022/06/17 06:33:03;;;;;;;;;11.75;11.00;;;;;-149.35;100.00;64108.03;4961757;28;45419;-51
2022/06/17 06:35:34;;;;;;;;;10.50;10.50;;;;;-149.35;100.00;64108.03;4963987;28;46461;-53
2022/06/17 06:38:00;;;;;;;;;12.60;12.60;;;;;-149.35;100.00;64108.03;4977763;28;45390;-54
2022/06/17 06:40:26;;;;;;;;;8.75;8.75;;;;;-149.35;100.00;64108.03;4995292;28;45470;-54
2022/06/17 06:42:51;;;;;;;;;12.20;11.00;;;;;-149.35;100.00;64108.03;4994488;28;45648;-51
2022/06/17 06:45:23;;;;;;;;;13.00;12.00;;;;;-149.35;100.00;64108.03;4995111;28;46608;-50
2022/06/17 06:47:49;;;;;;;;;10.00;9.40;;;;;-149.35;100.00;64108.03;4994257;28;45799;-53
2022/06/17 06:50:17;;;;;;;;;9.25;9.25;;;;;-149.35;100.00;64108.03;4977867;28;45467;-51
2022/06/17 06:52:42;;;;;;;;;13.00;11.80;;;;;-149.35;100.00;64108.03;4994564;28;45482;-49
2022/06/17 06:55:08;;;;;;;;;11.75;11.75;;;;;-149.35;100.00;64108.03;4977309;28;46658;-51
2022/06/17 06:57:34;;;;;;;;;11.40;11.40;;;;;-149.35;100.00;64108.03;4995336;28;45399;-48
2022/06/17 07:00:06;;;;;;;;;15.25;12.25;;;;;-149.35;100.00;64108.03;4994943;28;45448;-49
2022/06/17 07:02:32;;;;;;;;;17.80;15.00;;;;;-149.35;100.00;64108.03;4995332;28;45403;-50
2022/06/17 07:04:57;;;;;;;;;20.25;16.75;;;;;-149.35;100.00;64108.03;4994972;28;46002;-49
2022/06/17 07:07:23;;;;;;;;;28.25;18.50;;;;;-149.35;100.00;64108.03;4994882;28;45295;-51
2022/06/17 07:09:51;;;;;;;;;25.75;17.75;;;;;-149.35;100.00;64108.03;4995396;28;45486;-50
2022/06/17 07:12:16;;;;;;;;;15.00;11.80;;;;;-149.35;100.00;64108.03;4961691;28;45400;-52
2022/06/17 07:14:42;;;;;;;;;11.00;10.00;;;;;-149.35;100.00;64108.03;4994866;28;45462;-52
2022/06/17 07:17:09;;;;;;;;;12.00;10.25;;;;;-149.35;100.00;64108.03;4995267;28;45224;-50
2022/06/17 07:19:34;;;;;;;;;15.40;15.40;;;;;-149.35;100.00;64108.03;4994061;28;45434;-49
2022/06/17 07:22:00;;;;;;;;;11.75;11.50;;;;;-149.35;100.00;64108.03;4994960;28;45358;-50
2022/06/17 07:24:25;;;;;;;;;13.00;11.75;;;;;-149.35;100.00;64108.03;4994573;28;46554;-52
2022/06/17 07:26:51;;;;;;;;;13.50;12.00;;;;;-149.35;100.00;64108.03;4993727;28;45284;-51
2022/06/17 07:29:16;;;;;;;;;9.75;9.75;;;;;-149.35;100.00;64108.03;4994994;28;45314;-49
2022/06/17 07:31:42;;;;;;;;;9.25;9.25;;;;;-149.35;100.00;64108.03;4995220;28;45562;-52
2022/06/17 07:34:07;;;;;;;;;10.25;9.50;;;;;-149.35;100.00;64108.03;4993319;28;46178;-54
2022/06/17 07:42:01;;;;;;;;;26.80;20.20;;;;;-149.35;100.00;64108.03;4995942;28;45339;-51
2022/06/17 07:44:27;;;;;;;;;11.75;10.75;;;;;-149.35;100.00;64108.03;4997784;28;46268;-54
2022/06/17 07:46:52;;;;;;;;;8.75;7.50;;;;;-149.35;100.00;64108.03;4980645;28;45383;-53
2022/06/17 07:49:18;;;;;;;;;11.00;10.00;;;;;-149.35;100.00;64108.03;4997182;28;45568;-52
2022/06/17 07:51:43;;;;;;;;;49.75;35.50;;;;;-149.35;100.00;64108.03;4998181;28;45421;-51
2022/06/17 07:54:09;;;;;;;;;44.00;31.25;;;;;-149.35;100.00;64108.03;4997820;28;46532;-51
2022/06/17 07:56:34;;;;;;;;;39.00;26.50;;;;;-149.35;100.00;64108.03;4997382;28;45851;-53
2022/06/17 07:59:00;;;;;;;;;25.75;19.50;;;;;-149.35;100.00;64108.03;4980464;28;45410;-50
2022/06/17 08:01:25;;;;;;;;;12.25;10.75;;;;;-149.35;100.00;64108.03;4998023;28;45893;-50
2022/06/17 08:03:51;;;;;;;;;9.75;9.25;;;;;-149.35;100.00;64108.03;4997582;28;45627;-49
2022/06/17 08:06:18;;;;;;;;;10.25;10.25;;;;;-149.35;100.00;64108.03;4980180;28;45848;-54
2022/06/17 08:08:44;;;;;;;;;10.00;9.20;;;;;-149.35;100.00;64108.03;4980527;28;45272;-54
2022/06/17 08:11:10;;;;;;;;;12.20;10.40;;;;;-149.35;100.00;64108.03;4996620;28;45374;-53
2022/06/17 08:13:35;;;;;;;;;14.00;10.50;;;;;-149.35;100.00;64108.03;4996191;28;45374;-51
2022/06/17 08:16:02;;;;;;;;;10.00;10.00;;;;;-149.35;100.00;64108.03;4996322;28;45458;-51
2022/06/17 08:18:28;;;;;;;;;9.20;9.20;;;;;-149.35;100.00;64108.03;4980564;28;45509;-52
2022/06/17 08:20:54;;;;;;;;;10.50;9.75;;;;;-149.35;100.00;64108.03;4997471;28;45410;-49
2022/06/17 08:23:21;;;;;;;;;8.00;7.75;;;;;-149.35;100.00;64108.03;4963401;28;47853;-48
2022/06/17 08:25:46;;;;;;;;;8.60;8.60;;;;;-149.35;100.00;64108.03;4997315;28;45432;-48
2022/06/17 08:28:12;;;;;;;;;11.00;9.25;;;;;-149.35;100.00;64108.03;4997952;28;45827;-52
2022/06/17 08:30:40;;;;;;;;;11.60;9.40;;;;;-149.35;100.00;64108.03;4996648;28;46082;-53
2022/06/17 08:33:06;;;;;;;;;9.80;9.00;;;;;-149.35;100.00;64108.03;4997497;28;46717;-51
2022/06/17 08:35:34;;;;;;;;;10.25;9.75;;;;;-149.35;100.00;64108.03;4983584;28;45374;-56
2022/06/17 08:38:11;;;;;;;;;12.60;10.40;;;;;-149.35;100.00;64108.03;4981982;28;45426;-50
2022/06/17 08:40:55;;;;;;;;;10.80;10.80;;;;;-149.35;100.00;64108.03;4980417;28;45453;-53
2022/06/17 08:43:58;;;;;;;;;12.20;9.40;;;;;-149.35;100.00;64108.03;4997189;28;46880;-53
2022/06/17 08:46:32;;;;;;;;;11.00;9.20;;;;;-149.35;100.00;64108.03;4995846;28;45538;-50
2022/06/17 08:49:16;;;;;;;;;7.80;7.80;;;;;-149.35;100.00;64108.03;4996936;28;45284;-53
2022/06/17 08:52:18;;;;;;;;;6.00;6.00;;;;;-149.35;100.00;64108.03;4997228;28;45371;-47
2022/06/17 08:55:05;;;;;;;;;8.80;7.80;;;;;-149.35;100.00;64108.03;4997118;28;45767;-51
2022/06/17 08:57:42;;;;;;;;;9.00;9.00;;;;;-149.35;100.00;64108.03;4995585;28;45783;-56
2022/06/17 09:00:11;;;;;;;;;9.80;9.00;;;;;-149.35;100.00;64108.03;4976485;28;45454;-54
2022/06/17 09:03:05;;;;;;;;;8.00;8.00;;;;;-149.35;100.00;64108.03;4991641;28;45776;-48
2022/06/17 09:05:51;;;;;;;;;10.00;8.60;;;;;-149.35;100.00;64108.03;4989505;28;48082;-55
2022/06/17 09:08:23;;;;;;;;;9.00;7.00;;;;;-149.35;100.00;64108.03;4991327;28;45788;-51
2022/06/17 09:11:14;;;;;;;;;8.20;8.20;;;;;-149.35;100.00;64108.03;4992901;28;45709;-54
2022/06/17 09:13:46;;;;;;;;;11.80;9.40;;;;;-149.35;100.00;64108.03;4977124;28;45528;-51
2022/06/17 09:16:36;;;;;;;;;8.60;7.60;;;;;-149.35;100.00;64108.03;4992200;28;46327;-54
2022/06/17 09:19:03;;;;;;;;;7.20;7.20;;;;;-149.35;100.00;64108.03;4990966;28;45846;-55
2022/06/17 09:21:43;;;;;;;;;9.00;9.00;;;;;-149.35;100.00;64108.03;4991147;28;45758;-55
2022/06/17 09:24:11;;;;;;;;;9.00;9.00;;;;;-149.35;100.00;64108.03;4991338;28;45874;-51
2022/06/17 09:26:42;;;;;;;;;12.80;11.80;;;;;-149.35;100.00;64108.03;4974647;28;45886;-51
2022/06/17 09:29:39;;;;;;;;;9.40;8.20;;;;;-149.35;100.00;64108.03;4989834;28;46059;-50
2022/06/17 09:32:21;;;;;;;;;7.20;7.20;;;;;-149.35;100.00;64108.03;4973809;28;45433;-51
2022/06/17 09:35:04;;;;;;;;;9.00;9.00;;;;;-149.35;100.00;64108.03;4991175;28;45533;-48
2022/06/17 09:37:42;;;;;;;;;7.60;7.60;;;;;-149.35;100.00;64108.03;4964564;28;46733;-53
2022/06/17 09:40:26;;;;;;;;;6.20;6.20;;;;;-149.35;100.00;64108.03;4984399;28;45494;-53
2022/06/17 09:43:07;;;;;;;;;8.40;8.40;;;;;-149.35;100.00;64108.03;4991251;28;45949;-50
2022/06/17 09:45:42;;;;;;;;;8.00;8.00;;;;;-149.35;100.00;64108.03;4992380;28;45818;-49
2022/06/17 09:48:46;;;;;;;;;9.40;8.80;;;;;-149.35;100.00;64108.03;4990325;28;46017;-51
2022/06/17 09:51:15;;;;;;;;;7.20;7.20;;;;;-149.35;100.00;64108.03;4990915;28;45363;-51
2022/06/17 09:53:47;;;;;;;;;10.80;10.80;;;;;-149.35;100.00;64108.03;4989697;28;45559;-51
2022/06/17 09:56:15;;;;;;;;;6.60;5.80;;;;;-149.35;100.00;64108.03;4990683;28;46122;-51
2022/06/17 09:59:00;;;;;;;;;8.00;7.60;;;;;-149.35;100.00;64108.03;4992214;28;45771;-53
2022/06/17 10:01:25;;;;;;;;;4.20;4.20;;;;;-149.35;100.00;64108.03;4991940;28;45476;-53
2022/06/17 10:03:51;;;;;;;;;7.50;6.75;;;;;-149.35;100.00;64108.03;4990561;28;45761;-49
2022/06/17 10:06:34;;;;;;;;;11.25;6.75;;;;;-149.35;100.00;64108.03;4990292;28;45683;-54
2022/06/17 10:09:14;;;;;;;;;6.80;6.80;;;;;-149.35;100.00;64108.03;4991757;28;46219;-51
2022/06/17 10:11:49;;;;;;;;;8.80;8.00;;;;;-149.35;100.00;64108.03;4990226;28;45768;-54
2022/06/17 10:14:36;;;;;;;;;10.20;9.00;;;;;-149.35;100.00;64108.03;4990524;28;45543;-49
2022/06/17 10:20:35;;;;;;;;;10.60;10.60;;;;;-149.35;100.00;64108.03;4970754;28;45519;-49
2022/06/17 10:23:12;;;;;;;;;7.20;6.40;;;;;-149.35;100.00;64108.03;4971902;28;45351;-48
2022/06/17 10:25:57;;;;;;;;;7.80;7.80;;;;;-149.35;100.00;64108.03;4971656;28;45485;-50
2022/06/17 10:28:25;;;;;;;;;8.60;8.60;;;;;-149.35;100.00;64108.03;4972151;28;45825;-50
2022/06/17 10:30:58;;;;;;;;;9.00;8.00;;;;;-149.35;100.00;64108.03;4983210;28;45511;-52
2022/06/17 10:33:24;;;;;;;;;9.20;9.20;;;;;-149.35;100.00;64108.03;4991435;28;45901;-53
2022/06/17 10:35:50;;;;;;;;;8.50;8.50;;;;;-149.35;100.00;64108.03;4989906;28;45807;-49
2022/06/17 10:38:20;;;;;;;;;7.25;6.25;;;;;-149.35;100.00;64108.03;4992130;28;45755;-52
2022/06/17 10:40:46;;;;;;;;;9.00;8.00;;;;;-149.35;100.00;64108.03;4990211;28;45869;-53
2022/06/17 10:43:14;;;;;;;;;7.50;7.50;;;;;-149.35;100.00;64108.03;4930561;28;45418;-49
2022/06/17 10:45:40;;;;;;;;;5.00;5.00;;;;;-149.35;100.00;64108.03;4990060;28;45874;-48
2022/06/17 10:48:27;;;;;;;;;7.25;7.25;;;;;-149.35;100.00;64108.03;4990213;28;45763;-50
2022/06/17 10:50:52;;;;;;;;;6.40;5.40;;;;;-149.35;100.00;64108.03;4990964;28;46592;-51
2022/06/17 10:53:31;;;;;;;;;5.25;5.25;;;;;-149.35;100.00;64108.03;4989943;28;45462;-51
2022/06/17 10:55:59;;;;;;;;;6.00;4.40;;;;;-149.35;100.00;64108.03;4988896;28;45564;-54
2022/06/17 10:58:29;;;;;;;;;5.60;4.40;;;;;-149.35;100.00;64108.03;4990104;28;45513;-53
2022/06/17 11:01:04;;;;;;;;;5.00;3.80;;;;;-149.35;100.00;64108.03;4989453;28;47365;-52
2022/06/17 11:03:36;;;;;;;;;4.00;4.00;;;;;-149.35;100.00;64108.03;4989843;28;45565;-57
2022/06/17 11:06:02;;;;;;;;;5.40;5.40;;;;;-149.35;100.00;64108.03;4988560;28;45550;-54
2022/06/17 11:08:39;;;;;;;;;6.50;6.50;;;;;-149.35;100.00;64108.03;4991248;28;45829;-53
2022/06/17 11:13:49;;;;;;;;;8.20;8.00;;;;;-149.35;100.00;64108.03;4975888;28;45440;-49
2022/06/17 11:16:16;;;;;;;;;6.75;6.75;;;;;-149.35;100.00;64108.03;4974758;28;45446;-51
2022/06/17 11:18:45;;;;;;;;;9.00;7.80;;;;;-149.35;100.00;64108.03;4975723;28;45795;-50
2022/06/17 11:21:21;;;;;;;;;7.20;7.20;;;;;-149.35;100.00;64108.03;4994246;28;46383;-51
2022/06/17 11:23:47;;;;;;;;;8.60;8.60;;;;;-149.35;100.00;64108.03;4977076;28;45567;-51
2022/06/17 11:26:32;;;;;;;;;7.50;7.50;;;;;-149.35;100.00;64108.03;4993443;28;45550;-49
2022/06/17 11:29:03;;;;;;;;;5.00;5.00;;;;;-149.35;100.00;64108.03;4993091;28;45961;-51
2022/06/17 11:31:32;;;;;;;;;6.00;6.00;;;;;-149.35;100.00;64108.03;4972135;28;46485;-50